Marlborough, NH (03455)

6:16 AM EDT on August 30, 2015 (GMT -0400)
APRSWXNET | | Change Station
CLOSE
Current Station
Personal Weather Station
Location: Marlborough, NH
Elevation: 754 ft
Nearby Weather Stations

Elev 754 ft 42.91 °N, 72.22 °W | Updated 19 minutes ago

Partly Cloudy
Partly Cloudy
55 °F
Feels Like 55 °F
N
0
Wind Variable Wind from SW
Gusts 0.0 mph

Today
High -- | Low -- °F
--% Chance of Precip.
Yesterday
High -- | Low -- °F
Precip. -- in
6:10 AM 7:27 PM
Full, 99% visible
Pressure 30.09 in
Visibility 0.2 miles
Clouds Overcast 200 ft
Dew Point 54 °F
Humidity 97%
Rainfall in
Snow Depth Not available.
UV 0 out of 12
Pollen 7.90 out of 12
Air Quality Not available.
Flu Activity Not available.
METAR KEEN 301015Z AUTO 00000KT M1/4SM OVC002 14/11 A3009 RMK AO1
Pressure 30.09 in
Visibility 0.2 miles
Clouds Overcast 200 ft
Dew Point 54 °F
Humidity 97%
Rainfall in
Snow Depth Not available.
UV 0 out of 12
Pollen 7.90 out of 12
Air Quality Not available.
Flu Activity Not available.
METAR KEEN 301015Z AUTO 00000KT M1/4SM OVC002 14/11 A3009 RMK AO1

10-Day Weather Forecast

×

Almanac

Astronomy

Aug. 30, 2015 Rise Set
Actual Time
Civil Twilight
Nautical Twilight
Astronomical Twilight
Moon
Length of Visible Light
Length of Day
Tomorrow will be .
, % of the Moon is Illuminated

Today's Extremes

State Highs State Lows

Community

WunderPhotos

Upload Photos

1,850,919 photos uploaded!

WunderBlogs® & News

Nearby

Air Quality

  Air Quality AQ Index Pollutant
Not available.

Snow Depth

Station Depth Elevation

Earthquake Activity

City Distance Mag. Time & Date
Minimum magnitude displayed is 2.5.

Coastal Water Temperatures

Place Temperature

Stations

Nearby Weather Stations

Station Location Temp. Windchill Dew Point Humidity Wind Precip. Elev Updated Type